Abram, TX

8:12 AM CST on November 22, 2014 (GMT -0600)
North Cummings Ave | Change Station
CLOSE
Current Station
Personal Weather Station
Location: Mission, TX
Elevation: 154 ft
Nearby Weather Stations

Elev 154 ft 26.23 °N, 98.33 °W | Updated 10 seconds ago

Partly Cloudy
Partly Cloudy
71.1 °F
Feels Like 71.1 °F
N
3.1
Wind Variable Wind from SSW
Gusts 8.7 mph

Today
High -- | Low -- °F
--% Chance of Precip.
Yesterday
High -- | Low -- °F
Precip. -- in
6:57 AM 5:41 PM
New Moon, 0% visible
Pressure 29.93 in
Visibility 8.0 miles
Clouds Clear
Dew Point 68 °F
Humidity 92%
Rainfall 0.00 in
Snow Depth Not available.
UV 1 out of 12
Pollen 3.00 out of 12
Air Quality Not available.
Flu Activity Not available.
METAR KMFE 221353Z 13010KT 8SM CLR 21/20 A2994 RMK AO2 SLP135 T02110200

More Conditions Fewer Conditions

Pressure 29.93 in
Visibility 8.0 miles
Clouds Clear
Dew Point 68 °F
Humidity 92%
Rainfall 0.00 in
Snow Depth Not available.
UV 1 out of 12
Pollen 3.00 out of 12
Air Quality Not available.
Flu Activity Not available.
METAR KMFE 221353Z 13010KT 8SM CLR 21/20 A2994 RMK AO2 SLP135 T02110200

More Conditions Fewer Conditions

Nowcast | as of 6:29 am CST on November 22, 2014

Through 830 am...scattered showers will affect the eastern half of deep south Texas with brief periods of light to moderate rainfall. Rainfall totals will be less than 1/10 inch as the showers race quickly to the north.

×

10-Day Weather Forecast

Almanac

Astronomy

Nov. 22, 2014 Rise Set
Actual Time
Civil Twilight
Nautical Twilight
Astronomical Twilight
Moon
Length of Visible Light
Length of Day
Tomorrow will be .
, % of the Moon is Illuminated

Today's Extremes

State Highs State Lows

Community

WunderPhotos

Upload Photos

1,772,818 photos uploaded!

WunderBlogs® & News

Nearby

Air Quality

  Air Quality AQ Index Pollutant
Not available.

Snow Depth

Station Depth Elevation

Earthquake Activity

City Distance Mag. Time & Date
Minimum magnitude displayed is 2.5.

Coastal Water Temperatures

Place Temperature

Nearby Weather Stations